Weather reports worldwide

Advertisment
S. Giovanni Teatino, Italy (16231): temperature & dewpoint: 12.08.2019 03:00:00 - 18.08.2019 03:00:00 (CEST)S. Giovanni Teatino, Italy (16231): wind speed: 12.08.2019 03:00:00 - 18.08.2019 03:00:00 (CEST)S. Giovanni Teatino, Italy (16231): wind direction: 12.08.2019 03:00:00 - 18.08.2019 03:00:00 (CEST)S. Giovanni Teatino, Italy (16231): reduced air pressure: 12.08.2019 03:00:00 - 18.08.2019 03:00:00 (CEST)S. Giovanni Teatino, Italy (16231): precipitation: 12.08.2019 03:00:00 - 18.08.2019 03:00:00 (CEST)
Date & Time tt [°C] td [°C] ff [km/h] ff [kn] dd ppp [hPa] rr [mm]
18.08.2019 03:00:00 23,1 16,1 5 3 SW 1015,4 -
18.08.2019 02:00:00 21,6 17,3 5 3 SW 1015,6 -
18.08.2019 01:00:00 21,7 18,0 4 2 SW 1016,0 -
18.08.2019 00:00:00 22,2 18,1 5 3 SSW 1016,1 -
17.08.2019 23:00:00 22,4 17,9 5 3 SSW 1016,3 -
17.08.2019 22:00:00 22,6 17,4 5 3 S 1016,3 -
17.08.2019 21:00:00 22,4 19,3 8 4 E 1016,2 -
17.08.2019 20:00:00 23,1 18,8 9 5 ENE 1016,0 -
17.08.2019 19:00:00 23,9 18,5 11 6 ENE 1015,9 -
17.08.2019 18:00:00 - - - - - - -
17.08.2019 17:00:00 25,7 19,0 11 6 NE 1016,0 -
17.08.2019 16:00:00 25,6 18,5 11 6 ENE 1016,0 -
17.08.2019 15:00:00 26,9 17,6 13 7 NE 1016,2 -
17.08.2019 14:00:00 24,6 17,3 13 7 NE 1016,8 -
17.08.2019 13:00:00 25,9 16,1 9 5 NE 1016,5 -
17.08.2019 12:00:00 27,1 17,8 9 5 NNE 1016,9 -
17.08.2019 11:00:00 26,2 17,2 4 2 N 1017,2 -
17.08.2019 10:00:00 23,5 19,0 8 4 WSW 1017,3 -
17.08.2019 09:00:00 21,4 19,5 8 4 SW 1017,2 -
17.08.2019 08:00:00 19,9 18,0 9 5 WSW 1016,9 -
17.08.2019 07:00:00 19,7 17,8 11 6 SW 1016,4 -
17.08.2019 06:00:00 19,6 18,0 4 2 SW 1016,3 -
17.08.2019 05:00:00 19,6 18,0 8 4 SW 1016,4 -
17.08.2019 04:00:00 19,7 18,1 11 6 SW 1016,5 -
17.08.2019 03:00:00 20,2 18,4 8 4 SW 1016,5 -
17.08.2019 02:00:00 20,7 18,6 5 3 SW 1016,7 -
17.08.2019 01:00:00 21,2 18,7 8 4 SW 1016,9 -
17.08.2019 00:00:00 21,1 18,6 5 3 SW 1016,8 -
16.08.2019 23:00:00 21,9 19,0 5 3 SW 1016,7 -
16.08.2019 22:00:00 22,0 18,1 4 2 WSW 1016,5 -
16.08.2019 21:00:00 22,6 18,1 2 1 SW 1015,8 -
16.08.2019 20:00:00 23,6 18,2 2 1 W 1015,6 -
16.08.2019 19:00:00 24,9 18,8 5 3 NW 1015,0 -
16.08.2019 18:00:00 25,5 19,1 5 3 NNW 1014,9 -
16.08.2019 17:00:00 25,6 19,0 11 6 N 1014,8 -
16.08.2019 16:00:00 26,4 19,2 5 3 NNW 1014,8 -
16.08.2019 15:00:00 26,2 19,3 5 3 W 1015,1 -
16.08.2019 14:00:00 26,6 19,4 9 5 N 1015,2 -
16.08.2019 13:00:00 26,0 20,3 11 6 NNE 1015,1 -
16.08.2019 12:00:00 27,0 21,5 9 5 NW 1015,1 -
16.08.2019 11:00:00 26,1 19,4 8 4 N 1015,2 -
16.08.2019 10:00:00 23,4 18,9 5 3 WSW 1014,9 -
16.08.2019 09:00:00 21,9 18,8 8 4 SW 1014,8 -
16.08.2019 08:00:00 21,1 19,2 5 3 WSW 1014,9 0,0
16.08.2019 07:00:00 18,9 17,2 5 3 WSW 1014,7 -
16.08.2019 06:00:00 19,0 16,5 9 5 SW 1014,1 -
16.08.2019 05:00:00 20,2 17,3 5 3 WSW 1013,6 -
16.08.2019 04:00:00 20,6 16,4 0 0 N 1013,4 -
16.08.2019 03:00:00 21,3 17,0 2 1 SSW 1013,4 -
16.08.2019 02:00:00 21,5 17,0 4 2 SSW 1013,5 -
16.08.2019 01:00:00 21,4 16,5 5 3 SSW 1014,0 -
16.08.2019 00:00:00 21,5 16,2 8 4 S 1014,4 -
15.08.2019 23:00:00 22,1 15,8 5 3 SSW 1014,7 -
15.08.2019 22:00:00 22,4 16,1 2 1 SE 1014,8 -
15.08.2019 21:00:00 22,6 15,6 2 1 NE 1014,7 -
15.08.2019 20:00:00 23,6 15,6 2 1 N 1014,2 -
15.08.2019 19:00:00 24,7 16,1 4 2 N 1014,0 -
15.08.2019 18:00:00 25,5 18,4 4 2 SE 1013,9 -
15.08.2019 17:00:00 26,0 18,1 4 2 N 1013,6 -
15.08.2019 16:00:00 26,6 18,1 8 4 N 1013,8 -
15.08.2019 15:00:00 26,9 18,4 8 4 N 1014,0 -
15.08.2019 14:00:00 27,1 17,8 4 2 NW 1014,4 -
15.08.2019 13:00:00 26,8 16,9 11 6 NW 1014,6 -
15.08.2019 12:00:00 25,7 18,1 15 8 W 1014,7 -
15.08.2019 11:00:00 24,8 16,7 9 5 W 1015,0 -
15.08.2019 10:00:00 23,7 16,9 18 10 W 1015,1 -
15.08.2019 09:00:00 21,6 17,7 13 7 WSW 1015,4 -
15.08.2019 08:00:00 19,7 16,3 5 3 WSW 1015,4 -
15.08.2019 07:00:00 18,9 16,4 9 5 WSW 1015,0 -
15.08.2019 06:00:00 18,8 16,9 13 7 WSW 1014,7 -
15.08.2019 05:00:00 18,7 17,3 9 5 WSW 1014,5 -
15.08.2019 04:00:00 19,4 17,7 13 7 WSW 1014,4 -
15.08.2019 03:00:00 19,4 17,8 13 7 WSW 1014,7 -
15.08.2019 02:00:00 19,6 18,2 9 5 WSW 1014,8 -
15.08.2019 01:00:00 19,3 18,1 8 4 SW 1015,1 -
15.08.2019 00:00:00 20,2 19,0 5 3 SW 1014,7 -
14.08.2019 23:00:00 20,0 18,2 9 5 SW 1014,6 -
14.08.2019 22:00:00 20,7 18,2 8 4 WSW 1014,4 -
14.08.2019 21:00:00 20,7 18,9 11 6 SW 1013,9 -
14.08.2019 20:00:00 22,2 20,4 15 8 W 1013,4 -
14.08.2019 19:00:00 22,7 19,8 5 3 SW 1013,0 -
14.08.2019 18:00:00 21,7 19,2 9 5 SW 1012,3 -
14.08.2019 17:00:00 22,3 21,1 5 3 WSW 1012,3 -
14.08.2019 16:00:00 24,0 22,2 15 8 WNW 1011,9 -
14.08.2019 15:00:00 25,7 19,8 15 8 NW 1011,4 -
14.08.2019 14:00:00 28,8 21,0 9 5 NW 1011,0 -
14.08.2019 13:00:00 27,6 22,3 11 6 NW 1011,3 -
14.08.2019 12:00:00 26,9 23,1 13 7 WNW 1011,3 -
14.08.2019 11:00:00 26,5 21,4 16 9 W 1011,1 -
14.08.2019 10:00:00 25,5 21,7 13 7 W 1010,5 -
14.08.2019 09:00:00 24,0 22,2 16 9 W 1010,6 -
14.08.2019 08:00:00 23,8 22,2 4 2 W 1009,9 -
14.08.2019 07:00:00 24,0 22,4 4 2 W 1008,8 -
14.08.2019 06:00:00 24,2 22,6 4 2 SW 1008,1 -
14.08.2019 05:00:00 24,6 23,3 5 3 SSW 1008,1 -
14.08.2019 04:00:00 25,0 23,9 9 5 W 1007,9 -
14.08.2019 03:00:00 26,3 20,8 13 7 W 1007,3 -
14.08.2019 02:00:00 28,4 22,1 11 6 SSW 1007,4 -
14.08.2019 01:00:00 27,4 20,9 5 3 SSE 1007,8 -
14.08.2019 00:00:00 27,1 21,1 9 5 E 1007,5 -
13.08.2019 23:00:00 26,4 21,3 5 3 S 1007,7 -
13.08.2019 22:00:00 26,4 22,8 8 4 WSW 1008,2 -
13.08.2019 21:00:00 26,2 23,2 8 4 SSW 1008,6 -
13.08.2019 20:00:00 26,9 25,3 4 2 E 1009,0 -
13.08.2019 19:00:00 28,0 26,0 8 4 N 1009,7 -
13.08.2019 18:00:00 29,6 25,3 9 5 NW 1009,7 -
13.08.2019 17:00:00 30,1 26,3 9 5 N 1009,1 -
13.08.2019 16:00:00 30,4 25,7 9 5 N 1009,2 -
13.08.2019 15:00:00 31,4 23,2 4 2 N 1009,5 -
13.08.2019 14:00:00 32,8 21,6 5 3 NNW 1009,7 -
13.08.2019 13:00:00 33,7 20,5 8 4 WNW 1009,9 -
13.08.2019 12:00:00 32,8 20,7 4 2 WNW 1010,1 -
13.08.2019 11:00:00 31,7 22,1 5 3 WNW 1010,5 -
13.08.2019 10:00:00 29,5 22,7 4 2 W 1010,4 -
13.08.2019 09:00:00 26,3 18,9 11 6 WSW 1010,6 -
13.08.2019 08:00:00 27,1 19,4 8 4 S 1010,1 -
13.08.2019 07:00:00 26,1 20,8 8 4 SSW 1010,3 -
13.08.2019 06:00:00 25,7 20,7 11 6 SW 1010,4 -
13.08.2019 05:00:00 25,1 21,7 4 2 SW 1010,5 -
13.08.2019 04:00:00 24,8 20,8 2 1 WSW 1010,9 -
13.08.2019 03:00:00 25,8 20,8 0 0 N 1010,7 -
13.08.2019 02:00:00 26,3 20,3 4 2 WNW 1010,7 -
13.08.2019 01:00:00 27,5 19,0 8 4 W 1010,5 -
13.08.2019 00:00:00 27,5 19,2 13 7 WSW 1010,7 -
12.08.2019 23:00:00 27,8 20,8 11 6 SW 1010,6 -
12.08.2019 22:00:00 28,1 20,8 5 3 WSW 1010,7 -
12.08.2019 21:00:00 28,7 19,8 8 4 E 1010,0 -
12.08.2019 20:00:00 29,1 19,9 9 5 E 1009,5 -
12.08.2019 19:00:00 30,2 18,9 9 5 ENE 1009,5 -
12.08.2019 18:00:00 31,0 19,6 15 8 ENE 1009,7 -
12.08.2019 17:00:00 31,7 19,0 18 10 ENE 1009,8 -
12.08.2019 16:00:00 32,9 19,7 16 9 ENE 1010,1 -
12.08.2019 15:00:00 33,9 20,7 13 7 ENE 1010,4 -
12.08.2019 14:00:00 34,3 20,3 21 11 ENE 1010,6 -
12.08.2019 13:00:00 33,7 22,8 16 9 ENE 1011,3 -
12.08.2019 12:00:00 34,1 24,1 9 5 ENE 1011,7 -
12.08.2019 11:00:00 32,7 22,5 5 3 W 1012,0 -
12.08.2019 10:00:00 31,0 23,6 2 1 SSW 1012,1 -
12.08.2019 09:00:00 28,3 20,3 11 6 SW 1012,2 -
12.08.2019 08:00:00 27,2 20,2 5 3 S 1012,1 -
12.08.2019 07:00:00 26,5 19,6 4 2 SSW 1012,1 -
12.08.2019 06:00:00 26,8 19,4 2 1 WSW 1011,9 -
12.08.2019 05:00:00 26,5 19,1 4 2 W 1011,9 -
12.08.2019 04:00:00 27,0 19,0 2 1 SE 1011,9 -
12.08.2019 03:00:00 27,2 19,0 4 2 SW 1012,2 -

tt = temperature
td = dewpoint
ff = wind speed
dd = wind direction
ppp = reduced air pressure
rr = precipitation

Next stations